sensor_id;sensor_type;location;lat;lon;timestamp;pressure;altitude;pressure_sealevel;temperature;humidity
8627;BME280;4351;51.422;6.794;2022-10-01T02:57:11;100858.84;;;11.05;100.00
8627;BME280;4351;51.422;6.794;2022-10-01T02:59:55;100926.94;;;11.10;100.00
8627;BME280;4351;51.422;6.794;2022-10-01T03:02:25;100968.25;;;10.96;97.67
8627;BME280;4351;51.422;6.794;2022-10-01T03:04:54;101026.59;;;10.99;85.23
8627;BME280;4351;51.422;6.794;2022-10-01T03:07:23;101059.41;;;10.91;80.38
8627;BME280;4351;51.422;6.794;2022-10-01T03:09:52;101110.88;;;11.04;69.99
8627;BME280;4351;51.422;6.794;2022-10-01T03:12:21;101144.84;;;10.92;65.61
8627;BME280;4351;51.422;6.794;2022-10-01T03:14:50;101189.50;;;10.98;62.35
8627;BME280;4351;51.422;6.794;2022-10-01T03:17:19;101206.25;;;11.04;60.86
8627;BME280;4351;51.422;6.794;2022-10-01T03:19:47;101216.09;;;11.06;60.14
8627;BME280;4351;51.422;6.794;2022-10-01T03:22:17;101212.25;;;10.94;59.72
8627;BME280;4351;51.422;6.794;2022-10-01T03:24:48;101254.50;;;10.95;59.80
8627;BME280;4351;51.422;6.794;2022-10-01T03:27:18;101296.72;;;10.96;59.62
8627;BME280;4351;51.422;6.794;2022-10-01T03:29:48;101357.69;;;11.00;59.03
8627;BME280;4351;51.422;6.794;2022-10-01T03:32:17;101410.09;;;11.13;58.01
8627;BME280;4351;51.422;6.794;2022-10-01T03:34:46;101410.09;;;11.13;57.71
8627;BME280;4351;51.422;6.794;2022-10-01T03:37:14;101374.66;;;11.20;57.44
8627;BME280;4351;51.422;6.794;2022-10-01T03:39:42;101328.44;;;11.08;57.58
8627;BME280;4351;51.422;6.794;2022-10-01T03:42:10;101337.84;;;11.01;57.36
8627;BME280;4351;51.422;6.794;2022-10-01T03:44:38;101330.31;;;10.90;57.18
8627;BME280;4351;51.422;6.794;2022-10-01T03:47:08;101393.75;;;10.99;56.54
8627;BME280;4351;51.422;6.794;2022-10-01T03:49:36;101417.97;;;11.00;56.22
8627;BME280;4351;51.422;6.794;2022-10-01T03:52:04;101462.59;;;11.08;55.79
8627;BME280;4351;51.422;6.794;2022-10-01T03:54:33;101475.44;;;11.02;55.63
8627;BME280;4351;51.422;6.794;2022-10-01T03:57:01;101472.59;;;10.88;55.52
8627;BME280;4351;51.422;6.794;2022-10-01T03:59:29;101470.34;;;10.78;55.36
8627;BME280;4351;51.422;6.794;2022-10-01T04:01:57;101522.69;;;10.94;54.80
8627;BME280;4351;51.422;6.794;2022-10-01T04:04:26;101555.56;;;11.02;54.40
8627;BME280;4351;51.422;6.794;2022-10-01T04:06:55;101532.38;;;10.98;54.35
8627;BME280;4351;51.422;6.794;2022-10-01T04:09:23;101556.59;;;10.99;54.05
8627;BME280;4351;51.422;6.794;2022-10-01T04:11:51;101539.03;;;10.90;54.02
8627;BME280;4351;51.422;6.794;2022-10-01T04:54:44;101493.34;;;11.23;51.13
8627;BME280;4351;51.422;6.794;2022-10-01T05:18:51;101521.69;;;11.14;50.60
8627;BME280;4351;51.422;6.794;2022-10-01T05:22:51;101543.69;;;11.24;50.30
8627;BME280;4351;51.422;6.794;2022-10-01T05:29:36;101574.50;;;11.20;49.94
8627;BME280;4351;51.422;6.794;2022-10-01T05:32:05;101573.47;;;11.22;49.74
8627;BME280;4351;51.422;6.794;2022-10-01T05:34:38;101612.00;;;11.26;49.54
8627;BME280;4351;51.422;6.794;2022-10-01T05:37:06;101667.97;;;11.42;49.21
8627;BME280;4351;51.422;6.794;2022-10-01T05:39:35;101679.19;;;11.34;49.21
8627;BME280;4351;51.422;6.794;2022-10-01T05:42:03;101683.31;;;11.41;48.98
8627;BME280;4351;51.422;6.794;2022-10-01T05:44:35;101705.81;;;11.42;48.85
8627;BME280;4351;51.422;6.794;2022-10-01T05:47:06;101728.53;;;11.37;48.76
8627;BME280;4351;51.422;6.794;2022-10-01T05:49:34;101734.16;;;11.33;48.71
8627;BME280;4351;51.422;6.794;2022-10-01T05:52:04;101737.88;;;11.30;48.57
8627;BME280;4351;51.422;6.794;2022-10-01T05:54:33;101728.81;;;11.31;48.42
8627;BME280;4351;51.422;6.794;2022-10-01T06:01:21;101745.97;;;11.49;47.78
8627;BME280;4351;51.422;6.794;2022-10-01T06:03:49;101807.38;;;11.46;47.59
8627;BME280;4351;51.422;6.794;2022-10-01T06:06:20;101809.16;;;11.47;47.42
8627;BME280;4351;51.422;6.794;2022-10-01T06:08:50;101801.19;;;11.44;47.30
8627;BME280;4351;51.422;6.794;2022-10-01T06:11:18;101670.22;;;11.51;47.08
8627;BME280;4351;51.422;6.794;2022-10-01T07:02:22;101558.56;;;12.20;45.27
8627;BME280;4351;51.422;6.794;2022-10-01T07:04:55;101560.00;;;12.27;45.19
8627;BME280;4351;51.422;6.794;2022-10-01T07:07:28;101576.72;;;12.18;45.20
8627;BME280;4351;51.422;6.794;2022-10-01T07:09:57;101198.78;;;12.05;45.27
8627;BME280;4351;51.422;6.794;2022-10-01T07:12:25;101255.84;;;12.17;45.19
8627;BME280;4351;51.422;6.794;2022-10-01T07:14:53;101266.81;;;12.14;45.21
8627;BME280;4351;51.422;6.794;2022-10-01T07:17:23;101284.44;;;12.21;45.18
8627;BME280;4351;51.422;6.794;2022-10-01T07:19:51;101288.09;;;12.20;45.19
8627;BME280;4351;51.422;6.794;2022-10-01T07:22:19;101288.19;;;12.18;45.18
8627;BME280;4351;51.422;6.794;2022-10-01T07:24:50;101283.16;;;12.43;45.12
8627;BME280;4351;51.422;6.794;2022-10-01T07:27:18;101264.97;;;12.30;45.22
8627;BME280;4351;51.422;6.794;2022-10-01T07:29:46;101274.63;;;12.35;45.20
8627;BME280;4351;51.422;6.794;2022-10-01T07:32:15;101264.34;;;12.25;45.26
8627;BME280;4351;51.422;6.794;2022-10-01T07:34:44;101296.84;;;12.40;45.16
8627;BME280;4351;51.422;6.794;2022-10-01T07:37:12;101320.69;;;12.33;45.21
8627;BME280;4351;51.422;6.794;2022-10-01T07:39:41;101370.78;;;12.57;45.07
8627;BME280;4351;51.422;6.794;2022-10-01T07:42:09;101372.13;;;12.64;45.12
8627;BME280;4351;51.422;6.794;2022-10-01T07:44:37;101360.47;;;12.63;45.19
8627;BME280;4351;51.422;6.794;2022-10-01T07:47:05;101337.38;;;12.72;45.27
8627;BME280;4351;51.422;6.794;2022-10-01T07:49:33;101299.81;;;12.66;45.41
8627;BME280;4351;51.422;6.794;2022-10-01T07:52:02;101305.28;;;12.81;45.40
8627;BME280;4351;51.422;6.794;2022-10-01T07:54:38;101249.59;;;12.76;45.55
8627;BME280;4351;51.422;6.794;2022-10-01T07:57:06;101212.06;;;12.85;45.63
8627;BME280;4351;51.422;6.794;2022-10-01T07:59:34;101180.63;;;12.97;45.68
8627;BME280;4351;51.422;6.794;2022-10-01T08:02:03;101092.94;;;12.85;45.88
8627;BME280;4351;51.422;6.794;2022-10-01T08:04:32;101039.00;;;12.82;46.02
8627;BME280;4351;51.422;6.794;2022-10-01T08:07:29;101002.19;;;12.92;46.04
8627;BME280;4351;51.422;6.794;2022-10-01T08:09:57;100867.06;;;12.89;46.31
8627;BME280;4351;51.422;6.794;2022-10-01T08:12:25;100828.72;;;12.95;46.34
8627;BME280;4351;51.422;6.794;2022-10-01T08:14:53;100844.66;;;13.00;46.36
8627;BME280;4351;51.422;6.794;2022-10-01T08:17:21;100793.66;;;13.07;46.43
8627;BME280;4351;51.422;6.794;2022-10-01T08:19:55;100816.19;;;13.20;46.37
8627;BME280;4351;51.422;6.794;2022-10-01T08:22:26;100792.56;;;13.22;46.42
8627;BME280;4351;51.422;6.794;2022-10-01T08:24:54;100783.44;;;13.24;46.48
8627;BME280;4351;51.422;6.794;2022-10-01T08:27:23;100755.09;;;13.54;46.46
8627;BME280;4351;51.422;6.794;2022-10-01T08:29:51;100612.81;;;13.48;46.71
8627;BME280;4351;51.422;6.794;2022-10-01T08:32:20;100523.25;;;13.38;46.98
8627;BME280;4351;51.422;6.794;2022-10-01T08:34:50;100497.03;;;13.50;47.04
8627;BME280;4351;51.422;6.794;2022-10-01T08:37:27;100448.41;;;13.60;47.16
8627;BME280;4351;51.422;6.794;2022-10-01T08:39:56;100380.19;;;13.55;47.41
8627;BME280;4351;51.422;6.794;2022-10-01T08:42:40;100302.34;;;13.57;47.66
8627;BME280;4351;51.422;6.794;2022-10-01T08:45:13;100259.72;;;13.59;47.80
8627;BME280;4351;51.422;6.794;2022-10-01T08:47:46;100207.84;;;13.52;48.10
8627;BME280;4351;51.422;6.794;2022-10-01T08:50:30;100158.72;;;13.45;48.35
8627;BME280;4351;51.422;6.794;2022-10-01T08:53:15;100195.41;;;13.50;48.41
8627;BME280;4351;51.422;6.794;2022-10-01T08:55:46;100250.09;;;13.43;48.53
8627;BME280;4351;51.422;6.794;2022-10-01T08:58:20;100293.81;;;13.50;48.55
8627;BME280;4351;51.422;6.794;2022-10-01T09:00:50;100306.16;;;13.66;48.56
8627;BME280;4351;51.422;6.794;2022-10-01T09:03:18;100256.50;;;13.65;48.74
8627;BME280;4351;51.422;6.794;2022-10-01T09:05:55;100196.88;;;13.65;49.01
8627;BME280;4351;51.422;6.794;2022-10-01T09:08:36;100185.44;;;13.73;49.04
8627;BME280;4351;51.422;6.794;2022-10-01T09:11:18;100177.69;;;13.57;49.30
8627;BME280;4351;51.422;6.794;2022-10-01T09:17:00;100215.63;;;13.57;49.28
8627;BME280;4351;51.422;6.794;2022-10-01T09:19:44;100265.88;;;13.61;49.19
8627;BME280;4351;51.422;6.794;2022-10-01T09:22:29;100322.53;;;13.76;49.04
8627;BME280;4351;51.422;6.794;2022-10-01T09:25:10;100328.72;;;13.66;49.03
8627;BME280;4351;51.422;6.794;2022-10-01T09:27:39;100407.41;;;13.65;48.84
8627;BME280;4351;51.422;6.794;2022-10-01T09:30:11;100534.97;;;13.75;48.45
8627;BME280;4351;51.422;6.794;2022-10-01T09:32:43;100636.97;;;13.76;48.29
8627;BME280;4351;51.422;6.794;2022-10-01T09:35:24;100699.03;;;13.67;48.11
8627;BME280;4351;51.422;6.794;2022-10-01T09:37:59;100804.53;;;13.71;47.87
8627;BME280;4351;51.422;6.794;2022-10-01T09:40:34;100883.22;;;13.82;47.59
8627;BME280;4351;51.422;6.794;2022-10-01T09:43:05;100893.56;;;13.77;47.55
8627;BME280;4351;51.422;6.794;2022-10-01T09:45:36;100951.00;;;13.82;47.35
8627;BME280;4351;51.422;6.794;2022-10-01T09:48:15;100936.28;;;13.60;47.46
8627;BME280;4351;51.422;6.794;2022-10-01T09:50:48;100892.78;;;13.49;47.61
8627;BME280;4351;51.422;6.794;2022-10-01T09:53:25;100873.41;;;13.55;47.54
8627;BME280;4351;51.422;6.794;2022-10-01T09:56:03;100882.16;;;13.72;47.41
8627;BME280;4351;51.422;6.794;2022-10-01T09:58:34;100902.88;;;13.86;47.24
8627;BME280;4351;51.422;6.794;2022-10-01T10:01:14;100905.91;;;13.81;47.27
8627;BME280;4351;51.422;6.794;2022-10-01T10:03:53;100966.31;;;13.96;47.06
8627;BME280;4351;51.422;6.794;2022-10-01T10:06:24;100982.91;;;13.78;47.06
8627;BME280;4351;51.422;6.794;2022-10-01T10:08:55;101107.97;;;14.00;46.66
8627;BME280;4351;51.422;6.794;2022-10-01T10:11:26;101144.00;;;14.02;46.55
8627;BME280;4351;51.422;6.794;2022-10-01T10:13:57;101175.47;;;14.05;46.39
8627;BME280;4351;51.422;6.794;2022-10-01T10:16:28;101239.56;;;14.33;46.04
8627;BME280;4351;51.422;6.794;2022-10-01T10:19:01;101228.94;;;14.30;46.03
8627;BME280;4351;51.422;6.794;2022-10-01T10:21:32;101224.91;;;14.36;45.94
8627;BME280;4351;51.422;6.794;2022-10-01T10:24:02;100938.56;;;14.43;45.78
8627;BME280;4351;51.422;6.794;2022-10-01T10:27:22;100960.34;;;14.42;45.71
8627;BME280;4351;51.422;6.794;2022-10-01T10:30:05;100899.22;;;14.49;45.73
8627;BME280;4351;51.422;6.794;2022-10-01T10:32:34;100919.25;;;14.59;45.68
8627;BME280;4351;51.422;6.794;2022-10-01T10:35:08;100782.78;;;14.57;45.95
8627;BME280;4351;51.422;6.794;2022-10-01T10:37:44;100625.13;;;14.60;46.26
8627;BME280;4351;51.422;6.794;2022-10-01T10:40:22;100446.19;;;14.57;46.60
8627;BME280;4351;51.422;6.794;2022-10-01T10:42:57;100277.94;;;14.57;46.98
8627;BME280;4351;51.422;6.794;2022-10-01T10:45:31;100168.97;;;14.62;47.27
8627;BME280;4351;51.422;6.794;2022-10-01T10:51:04;99962.56;;;14.64;47.88
8627;BME280;4351;51.422;6.794;2022-10-01T10:53:40;99971.75;;;14.82;47.85
8627;BME280;4351;51.422;6.794;2022-10-01T10:56:53;99923.34;;;14.88;48.09
8627;BME280;4351;51.422;6.794;2022-10-01T11:00:25;99783.16;;;14.87;48.50
8627;BME280;4351;51.422;6.794;2022-10-01T11:03:44;99578.84;;;15.13;48.91
8627;BME280;4351;51.422;6.794;2022-10-01T11:08:18;99419.91;;;15.27;49.32
8627;BME280;4351;51.422;6.794;2022-10-01T11:14:32;98517.53;;;15.57;51.63
8627;BME280;4351;51.422;6.794;2022-10-01T11:17:36;97980.50;;;15.57;53.22
8627;BME280;4351;51.422;6.794;2022-10-01T11:20:32;97446.63;;;15.55;54.99
8627;BME280;4351;51.422;6.794;2022-10-01T11:27:42;96764.16;;;15.54;58.61
8627;BME280;4351;51.422;6.794;2022-10-01T11:30:19;96681.47;;;15.50;59.45
8627;BME280;4351;51.422;6.794;2022-10-01T11:32:57;96510.78;;;15.54;60.93
8627;BME280;4351;51.422;6.794;2022-10-01T11:36:06;96349.31;;;15.56;62.70
8627;BME280;4351;51.422;6.794;2022-10-01T11:38:42;96356.72;;;15.37;63.76
8627;BME280;4351;51.422;6.794;2022-10-01T11:41:42;96335.94;;;15.31;64.46
8627;BME280;4351;51.422;6.794;2022-10-01T11:44:23;96238.44;;;15.17;66.17
8627;BME280;4351;51.422;6.794;2022-10-01T11:46:58;96282.78;;;15.11;65.48
8627;BME280;4351;51.422;6.794;2022-10-01T11:53:20;96627.72;;;14.96;62.01
8627;BME280;4351;51.422;6.794;2022-10-01T12:00:06;96888.81;;;14.84;60.12
8627;BME280;4351;51.422;6.794;2022-10-01T12:02:46;96799.09;;;14.79;60.84
8627;BME280;4351;51.422;6.794;2022-10-01T12:05:17;96737.16;;;14.76;60.87
8627;BME280;4351;51.422;6.794;2022-10-01T12:07:49;96711.47;;;14.85;60.67
8627;BME280;4351;51.422;6.794;2022-10-01T12:10:34;96730.00;;;14.88;60.07
8627;BME280;4351;51.422;6.794;2022-10-01T12:13:09;96769.63;;;14.96;59.23
8627;BME280;4351;51.422;6.794;2022-10-01T12:15:44;96742.53;;;15.40;58.77
8627;BME280;4351;51.422;6.794;2022-10-01T12:18:20;96576.88;;;15.66;59.08
8627;BME280;4351;51.422;6.794;2022-10-01T12:20:52;96466.78;;;15.94;59.08
8627;BME280;4351;51.422;6.794;2022-10-01T12:23:25;96378.72;;;16.14;59.05
8627;BME280;4351;51.422;6.794;2022-10-01T12:26:01;96076.75;;;15.98;63.07
8627;BME280;4351;51.422;6.794;2022-10-01T12:28:37;95704.44;;;15.88;70.17
8627;BME280;4351;51.422;6.794;2022-10-01T12:31:11;95392.84;;;16.06;79.16
8627;BME280;4351;51.422;6.794;2022-10-01T12:38:07;94800.50;;;16.63;100.00
8627;BME280;4351;51.422;6.794;2022-10-01T12:41:13;94856.56;;;16.49;100.00
8627;BME280;4351;51.422;6.794;2022-10-01T12:43:56;94865.75;;;16.63;100.00
8627;BME280;4351;51.422;6.794;2022-10-01T12:46:42;94896.75;;;16.57;100.00
8627;BME280;4351;51.422;6.794;2022-10-01T12:49:46;94935.41;;;16.38;100.00
8627;BME280;4351;51.422;6.794;2022-10-01T12:57:34;95015.78;;;16.13;100.00
8627;BME280;4351;51.422;6.794;2022-10-01T13:00:09;95073.91;;;16.07;100.00
8627;BME280;4351;51.422;6.794;2022-10-01T13:03:27;95088.88;;;16.15;100.00
8627;BME280;4351;51.422;6.794;2022-10-01T13:06:22;95146.59;;;15.89;100.00
8627;BME280;4351;51.422;6.794;2022-10-01T13:09:04;95166.41;;;15.84;100.00
8627;BME280;4351;51.422;6.794;2022-10-01T13:11:54;95207.91;;;15.74;100.00
8627;BME280;4351;51.422;6.794;2022-10-01T13:14:31;95158.63;;;16.04;100.00
8627;BME280;4351;51.422;6.794;2022-10-01T13:17:12;95187.94;;;16.02;100.00
8627;BME280;4351;51.422;6.794;2022-10-01T13:20:06;95196.16;;;16.07;100.00
8627;BME280;4351;51.422;6.794;2022-10-01T13:22:42;95183.78;;;16.32;100.00
8627;BME280;4351;51.422;6.794;2022-10-01T13:25:20;95215.25;;;16.28;100.00
8627;BME280;4351;51.422;6.794;2022-10-01T14:04:35;95614.69;;;16.23;100.00
8627;BME280;4351;51.422;6.794;2022-10-01T14:07:13;95635.28;;;16.18;100.00
8627;BME280;4351;51.422;6.794;2022-10-01T14:09:44;95646.59;;;16.10;100.00
8627;BME280;4351;51.422;6.794;2022-10-01T14:12:17;95611.03;;;16.39;100.00
8627;BME280;4351;51.422;6.794;2022-10-01T14:15:14;95644.19;;;16.36;100.00
8627;BME280;4351;51.422;6.794;2022-10-01T14:18:03;95630.13;;;16.45;100.00
8627;BME280;4351;51.422;6.794;2022-10-01T14:20:47;95659.06;;;16.56;100.00
8627;BME280;4351;51.422;6.794;2022-10-01T14:23:22;95665.34;;;16.62;100.00
8627;BME280;4351;51.422;6.794;2022-10-01T14:25:59;95712.16;;;16.41;100.00
8627;BME280;4351;51.422;6.794;2022-10-01T14:28:41;95713.63;;;16.77;100.00
8627;BME280;4351;51.422;6.794;2022-10-01T14:31:19;95789.41;;;16.68;100.00
8627;BME280;4351;51.422;6.794;2022-10-01T14:36:54;95890.75;;;16.81;100.00
8627;BME280;4351;51.422;6.794;2022-10-01T14:39:24;95885.13;;;17.10;100.00
8627;BME280;4351;51.422;6.794;2022-10-01T14:41:55;95911.59;;;17.15;100.00
8627;BME280;4351;51.422;6.794;2022-10-01T14:44:26;95984.63;;;16.83;100.00
8627;BME280;4351;51.422;6.794;2022-10-01T14:46:59;95971.09;;;16.88;100.00
8627;BME280;4351;51.422;6.794;2022-10-01T14:49:39;95979.31;;;16.94;100.00
8627;BME280;4351;51.422;6.794;2022-10-01T14:52:19;95990.91;;;16.66;100.00
8627;BME280;4351;51.422;6.794;2022-10-01T14:54:52;95976.00;;;16.69;100.00
8627;BME280;4351;51.422;6.794;2022-10-01T14:57:27;95963.69;;;16.84;100.00
8627;BME280;4351;51.422;6.794;2022-10-01T14:59:59;95977.38;;;16.89;100.00
8627;BME280;4351;51.422;6.794;2022-10-01T15:02:33;95988.41;;;16.99;100.00
8627;BME280;4351;51.422;6.794;2022-10-01T15:05:18;96031.88;;;16.77;100.00
8627;BME280;4351;51.422;6.794;2022-10-01T15:08:31;96023.06;;;16.87;100.00
8627;BME280;4351;51.422;6.794;2022-10-01T15:11:56;96024.97;;;16.69;100.00
8627;BME280;4351;51.422;6.794;2022-10-01T15:14:46;96026.34;;;16.72;100.00
8627;BME280;4351;51.422;6.794;2022-10-01T15:17:26;96028.84;;;16.73;100.00
8627;BME280;4351;51.422;6.794;2022-10-01T15:20:21;96004.19;;;17.03;100.00
8627;BME280;4351;51.422;6.794;2022-10-01T15:26:11;96046.06;;;16.62;100.00
8627;BME280;4351;51.422;6.794;2022-10-01T15:28:42;96068.88;;;16.61;100.00
8627;BME280;4351;51.422;6.794;2022-10-01T15:31:14;96125.16;;;16.60;100.00
8627;BME280;4351;51.422;6.794;2022-10-01T15:33:46;96181.91;;;16.57;100.00
8627;BME280;4351;51.422;6.794;2022-10-01T15:36:18;96214.91;;;16.60;100.00
8627;BME280;4351;51.422;6.794;2022-10-01T15:39:26;96237.47;;;16.61;100.00
8627;BME280;4351;51.422;6.794;2022-10-01T15:43:12;96287.53;;;16.48;100.00
8627;BME280;4351;51.422;6.794;2022-10-01T15:46:09;96271.81;;;16.79;100.00
8627;BME280;4351;51.422;6.794;2022-10-01T15:48:38;96344.78;;;16.41;100.00
8627;BME280;4351;51.422;6.794;2022-10-01T15:51:16;96319.88;;;16.61;100.00
8627;BME280;4351;51.422;6.794;2022-10-01T15:53:52;96320.09;;;16.72;100.00
8627;BME280;4351;51.422;6.794;2022-10-01T15:56:36;96397.50;;;16.52;100.00
8627;BME280;4351;51.422;6.794;2022-10-01T15:59:18;96388.75;;;16.38;100.00
8627;BME280;4351;51.422;6.794;2022-10-01T16:01:47;96362.94;;;16.52;100.00
8627;BME280;4351;51.422;6.794;2022-10-01T16:04:19;96411.19;;;16.57;100.00
8627;BME280;4351;51.422;6.794;2022-10-01T16:06:51;96472.19;;;16.37;100.00
8627;BME280;4351;51.422;6.794;2022-10-01T16:09:22;96485.78;;;16.25;100.00
8627;BME280;4351;51.422;6.794;2022-10-01T16:11:57;96481.78;;;16.40;100.00
8627;BME280;4351;51.422;6.794;2022-10-01T16:14:32;96500.91;;;16.33;100.00
8627;BME280;4351;51.422;6.794;2022-10-01T16:17:24;96518.16;;;16.27;100.00
8627;BME280;4351;51.422;6.794;2022-10-01T16:19:56;96518.50;;;16.18;100.00
8627;BME280;4351;51.422;6.794;2022-10-01T16:22:28;96511.59;;;16.04;100.00
8627;BME280;4351;51.422;6.794;2022-10-01T16:25:28;96489.13;;;15.96;100.00
8627;BME280;4351;51.422;6.794;2022-10-01T16:28:00;96445.72;;;16.20;100.00
8627;BME280;4351;51.422;6.794;2022-10-01T16:30:30;96480.06;;;16.03;100.00
8627;BME280;4351;51.422;6.794;2022-10-01T16:33:02;96465.19;;;16.17;100.00
8627;BME280;4351;51.422;6.794;2022-10-01T16:35:33;96469.84;;;15.98;100.00
8627;BME280;4351;51.422;6.794;2022-10-01T16:38:04;96461.22;;;15.89;100.00
8627;BME280;4351;51.422;6.794;2022-10-01T16:40:38;96463.34;;;15.87;100.00
8627;BME280;4351;51.422;6.794;2022-10-01T16:43:15;96451.63;;;15.86;100.00
8627;BME280;4351;51.422;6.794;2022-10-01T16:45:48;96439.47;;;15.89;100.00
8627;BME280;4351;51.422;6.794;2022-10-01T16:48:22;96465.78;;;15.77;100.00
8627;BME280;4351;51.422;6.794;2022-10-01T16:50:52;96463.94;;;15.89;100.00
8627;BME280;4351;51.422;6.794;2022-10-01T16:53:25;96484.81;;;15.77;100.00
8627;BME280;4351;51.422;6.794;2022-10-01T16:55:54;96498.88;;;15.55;100.00
8627;BME280;4351;51.422;6.794;2022-10-01T16:58:28;96474.69;;;15.53;100.00
8627;BME280;4351;51.422;6.794;2022-10-01T17:01:07;96464.13;;;15.75;100.00
8627;BME280;4351;51.422;6.794;2022-10-01T17:03:36;96502.06;;;15.51;100.00
8627;BME280;4351;51.422;6.794;2022-10-01T17:06:04;96493.91;;;15.51;100.00
8627;BME280;4351;51.422;6.794;2022-10-01T17:08:33;96488.47;;;15.51;100.00
8627;BME280;4351;51.422;6.794;2022-10-01T17:11:02;96503.72;;;15.34;100.00
8627;BME280;4351;51.422;6.794;2022-10-01T17:13:34;96495.66;;;15.27;100.00
8627;BME280;4351;51.422;6.794;2022-10-01T17:16:04;96504.50;;;15.41;100.00
8627;BME280;4351;51.422;6.794;2022-10-01T17:18:33;96518.66;;;15.43;100.00
8627;BME280;4351;51.422;6.794;2022-10-01T17:21:02;96538.28;;;15.26;100.00
8627;BME280;4351;51.422;6.794;2022-10-01T17:23:31;96555.78;;;15.31;100.00
8627;BME280;4351;51.422;6.794;2022-10-01T17:26:00;96563.03;;;15.18;100.00
8627;BME280;4351;51.422;6.794;2022-10-01T17:28:31;96543.69;;;15.08;100.00
8627;BME280;4351;51.422;6.794;2022-10-01T17:31:08;96515.66;;;15.14;100.00
8627;BME280;4351;51.422;6.794;2022-10-01T17:33:51;96518.53;;;15.00;100.00
8627;BME280;4351;51.422;6.794;2022-10-01T17:36:29;96530.13;;;14.89;100.00
8627;BME280;4351;51.422;6.794;2022-10-01T17:39:15;96540.50;;;14.92;100.00
8627;BME280;4351;51.422;6.794;2022-10-01T17:41:46;96550.16;;;14.88;100.00
8627;BME280;4351;51.422;6.794;2022-10-01T17:44:14;96547.59;;;14.93;100.00
8627;BME280;4351;51.422;6.794;2022-10-01T17:46:44;96581.06;;;14.87;100.00
8627;BME280;4351;51.422;6.794;2022-10-01T17:49:17;96577.75;;;14.85;100.00
8627;BME280;4351;51.422;6.794;2022-10-01T17:51:47;96595.31;;;14.75;100.00
8627;BME280;4351;51.422;6.794;2022-10-01T17:54:16;96589.78;;;14.63;100.00
8627;BME280;4351;51.422;6.794;2022-10-01T17:56:50;96603.97;;;14.33;100.00
8627;BME280;4351;51.422;6.794;2022-10-01T17:59:19;96599.66;;;14.25;100.00
8627;BME280;4351;51.422;6.794;2022-10-01T18:01:49;96580.69;;;14.51;100.00
8627;BME280;4351;51.422;6.794;2022-10-01T18:04:18;96599.19;;;14.60;100.00
8627;BME280;4351;51.422;6.794;2022-10-01T18:06:46;96627.34;;;14.59;100.00
8627;BME280;4351;51.422;6.794;2022-10-01T18:09:15;96635.44;;;14.66;100.00
8627;BME280;4351;51.422;6.794;2022-10-01T18:11:45;96661.38;;;14.55;100.00
8627;BME280;4351;51.422;6.794;2022-10-01T18:14:13;96672.56;;;14.66;100.00
8627;BME280;4351;51.422;6.794;2022-10-01T18:16:41;96708.28;;;14.56;100.00
8627;BME280;4351;51.422;6.794;2022-10-01T18:19:11;96706.88;;;14.46;100.00
8627;BME280;4351;51.422;6.794;2022-10-01T18:22:11;96704.16;;;14.46;100.00
8627;BME280;4351;51.422;6.794;2022-10-01T18:24:51;96718.91;;;14.57;100.00
8627;BME280;4351;51.422;6.794;2022-10-01T18:27:20;96732.31;;;14.52;100.00
8627;BME280;4351;51.422;6.794;2022-10-01T18:29:49;96746.09;;;14.44;100.00
8627;BME280;4351;51.422;6.794;2022-10-01T18:32:20;96764.69;;;14.33;100.00
8627;BME280;4351;51.422;6.794;2022-10-01T18:34:53;96759.06;;;14.35;100.00
8627;BME280;4351;51.422;6.794;2022-10-01T18:37:27;96718.63;;;14.33;100.00
8627;BME280;4351;51.422;6.794;2022-10-01T18:40:05;96694.75;;;14.17;100.00
8627;BME280;4351;51.422;6.794;2022-10-01T18:42:42;96688.91;;;14.13;100.00
8627;BME280;4351;51.422;6.794;2022-10-01T18:45:34;96688.75;;;14.01;100.00
8627;BME280;4351;51.422;6.794;2022-10-01T18:48:22;96694.59;;;13.98;100.00
8627;BME280;4351;51.422;6.794;2022-10-01T18:51:15;96713.56;;;13.91;100.00
8627;BME280;4351;51.422;6.794;2022-10-01T18:53:59;96732.16;;;13.74;100.00
8627;BME280;4351;51.422;6.794;2022-10-01T18:56:34;96740.06;;;13.82;100.00
8627;BME280;4351;51.422;6.794;2022-10-01T18:59:48;96740.50;;;13.86;100.00
8627;BME280;4351;51.422;6.794;2022-10-01T19:05:51;96775.47;;;13.87;100.00
8627;BME280;4351;51.422;6.794;2022-10-01T19:08:39;96794.66;;;13.79;100.00
8627;BME280;4351;51.422;6.794;2022-10-01T19:11:18;96787.56;;;13.85;100.00
8627;BME280;4351;51.422;6.794;2022-10-01T19:13:56;96790.09;;;13.79;100.00
8627;BME280;4351;51.422;6.794;2022-10-01T19:16:34;96795.91;;;13.70;100.00
8627;BME280;4351;51.422;6.794;2022-10-01T19:19:17;96795.50;;;13.66;100.00
8627;BME280;4351;51.422;6.794;2022-10-01T19:21:58;96798.84;;;13.75;100.00
8627;BME280;4351;51.422;6.794;2022-10-01T19:24:46;96803.41;;;13.67;100.00
8627;BME280;4351;51.422;6.794;2022-10-01T19:27:32;96815.69;;;13.77;100.00
8627;BME280;4351;51.422;6.794;2022-10-01T19:30:33;96831.72;;;13.78;100.00
8627;BME280;4351;51.422;6.794;2022-10-01T19:33:08;96843.63;;;13.84;100.00
8627;BME280;4351;51.422;6.794;2022-10-01T19:41:04;96868.00;;;13.84;100.00
8627;BME280;4351;51.422;6.794;2022-10-01T19:43:37;96893.81;;;13.66;100.00
8627;BME280;4351;51.422;6.794;2022-10-01T19:46:10;96908.75;;;13.49;100.00
8627;BME280;4351;51.422;6.794;2022-10-01T19:48:48;96909.22;;;13.59;100.00
8627;BME280;4351;51.422;6.794;2022-10-01T19:51:20;96885.44;;;13.54;100.00
8627;BME280;4351;51.422;6.794;2022-10-01T19:53:50;96870.88;;;13.49;100.00
8627;BME280;4351;51.422;6.794;2022-10-01T19:56:26;96863.13;;;13.39;100.00
8627;BME280;4351;51.422;6.794;2022-10-01T19:58:55;96865.66;;;13.40;100.00
8627;BME280;4351;51.422;6.794;2022-10-01T20:01:31;96863.97;;;13.39;100.00
8627;BME280;4351;51.422;6.794;2022-10-01T20:04:04;96856.25;;;13.36;100.00
8627;BME280;4351;51.422;6.794;2022-10-01T20:06:36;96858.34;;;13.34;100.00
8627;BME280;4351;51.422;6.794;2022-10-01T20:09:10;96850.44;;;13.39;100.00
8627;BME280;4351;51.422;6.794;2022-10-01T20:11:47;96857.09;;;13.37;100.00
8627;BME280;4351;51.422;6.794;2022-10-01T20:14:40;96849.63;;;13.52;100.00
8627;BME280;4351;51.422;6.794;2022-10-01T20:17:34;96872.50;;;13.43;100.00
8627;BME280;4351;51.422;6.794;2022-10-01T20:20:13;96877.72;;;13.31;100.00
8627;BME280;4351;51.422;6.794;2022-10-01T20:22:53;96882.28;;;13.30;100.00